sensor_id;sensor_type;location;lat;lon;timestamp;temperature;humidity
51839;DHT22;37886;53.174;6.368;2022-10-28T00:00:50;14.00;99.90
51839;DHT22;37886;53.174;6.368;2022-10-28T00:03:17;14.10;99.90
51839;DHT22;37886;53.174;6.368;2022-10-28T00:05:43;14.20;99.90
51839;DHT22;37886;53.174;6.368;2022-10-28T00:08:09;14.30;99.90
51839;DHT22;37886;53.174;6.368;2022-10-28T00:10:35;14.40;99.90
51839;DHT22;37886;53.174;6.368;2022-10-28T00:13:01;14.40;99.90
51839;DHT22;37886;53.174;6.368;2022-10-28T00:15:27;14.50;99.90
51839;DHT22;37886;53.174;6.368;2022-10-28T00:17:52;14.60;99.90
51839;DHT22;37886;53.174;6.368;2022-10-28T00:20:18;14.60;99.90
51839;DHT22;37886;53.174;6.368;2022-10-28T00:22:44;14.60;99.90
51839;DHT22;37886;53.174;6.368;2022-10-28T00:25:10;14.60;99.90
51839;DHT22;37886;53.174;6.368;2022-10-28T00:27:35;14.60;99.90
51839;DHT22;37886;53.174;6.368;2022-10-28T00:30:02;14.70;99.90
51839;DHT22;37886;53.174;6.368;2022-10-28T00:32:28;14.80;99.90
51839;DHT22;37886;53.174;6.368;2022-10-28T00:34:54;14.80;99.90
51839;DHT22;37886;53.174;6.368;2022-10-28T00:37:20;14.80;99.90
51839;DHT22;37886;53.174;6.368;2022-10-28T00:39:51;14.70;99.90
51839;DHT22;37886;53.174;6.368;2022-10-28T00:42:19;14.70;99.90
51839;DHT22;37886;53.174;6.368;2022-10-28T00:44:54;14.70;99.90
51839;DHT22;37886;53.174;6.368;2022-10-28T00:47:43;14.80;99.90
51839;DHT22;37886;53.174;6.368;2022-10-28T00:53:00;14.80;99.90
51839;DHT22;37886;53.174;6.368;2022-10-28T00:55:28;14.80;99.90
51839;DHT22;37886;53.174;6.368;2022-10-28T00:57:54;14.90;99.90
51839;DHT22;37886;53.174;6.368;2022-10-28T01:00:22;15.00;99.90
51839;DHT22;37886;53.174;6.368;2022-10-28T01:02:48;15.00;99.90
51839;DHT22;37886;53.174;6.368;2022-10-28T01:05:26;15.00;99.90
51839;DHT22;37886;53.174;6.368;2022-10-28T01:07:56;14.90;99.90
51839;DHT22;37886;53.174;6.368;2022-10-28T01:10:34;14.80;99.90
51839;DHT22;37886;53.174;6.368;2022-10-28T01:13:11;14.80;99.90
51839;DHT22;37886;53.174;6.368;2022-10-28T01:15:54;14.70;99.90
51839;DHT22;37886;53.174;6.368;2022-10-28T01:18:34;14.70;99.90
51839;DHT22;37886;53.174;6.368;2022-10-28T01:29:24;14.70;99.90
51839;DHT22;37886;53.174;6.368;2022-10-28T01:35:28;14.50;99.90
51839;DHT22;37886;53.174;6.368;2022-10-28T01:41:04;14.30;99.90
51839;DHT22;37886;53.174;6.368;2022-10-28T01:48:56;14.00;99.90
51839;DHT22;37886;53.174;6.368;2022-10-28T01:51:36;14.00;99.90
51839;DHT22;37886;53.174;6.368;2022-10-28T01:54:06;14.00;99.90
51839;DHT22;37886;53.174;6.368;2022-10-28T01:56:36;13.90;99.90
51839;DHT22;37886;53.174;6.368;2022-10-28T01:59:07;13.90;99.90
51839;DHT22;37886;53.174;6.368;2022-10-28T02:01:35;13.70;99.90
51839;DHT22;37886;53.174;6.368;2022-10-28T02:04:01;13.70;99.90
51839;DHT22;37886;53.174;6.368;2022-10-28T02:06:29;13.70;99.90
51839;DHT22;37886;53.174;6.368;2022-10-28T02:23:39;13.20;99.90
51839;DHT22;37886;53.174;6.368;2022-10-28T02:26:16;13.20;99.90
51839;DHT22;37886;53.174;6.368;2022-10-28T02:29:16;13.20;99.90
51839;DHT22;37886;53.174;6.368;2022-10-28T02:31:50;13.10;99.90
51839;DHT22;37886;53.174;6.368;2022-10-28T02:34:22;13.00;99.90
51839;DHT22;37886;53.174;6.368;2022-10-28T02:36:52;13.00;99.90
51839;DHT22;37886;53.174;6.368;2022-10-28T02:39:27;12.90;99.90
51839;DHT22;37886;53.174;6.368;2022-10-28T02:41:58;13.00;99.90
51839;DHT22;37886;53.174;6.368;2022-10-28T02:44:31;12.90;99.90
51839;DHT22;37886;53.174;6.368;2022-10-28T02:47:00;12.90;99.90
51839;DHT22;37886;53.174;6.368;2022-10-28T02:49:28;12.90;99.90
51839;DHT22;37886;53.174;6.368;2022-10-28T02:51:58;12.90;99.90
51839;DHT22;37886;53.174;6.368;2022-10-28T02:57:11;12.80;99.90
51839;DHT22;37886;53.174;6.368;2022-10-28T02:59:37;12.80;99.90
51839;DHT22;37886;53.174;6.368;2022-10-28T03:02:04;12.80;99.90
51839;DHT22;37886;53.174;6.368;2022-10-28T03:04:30;12.80;99.90
51839;DHT22;37886;53.174;6.368;2022-10-28T03:06:55;12.70;99.90
51839;DHT22;37886;53.174;6.368;2022-10-28T03:09:21;12.60;99.90
51839;DHT22;37886;53.174;6.368;2022-10-28T03:11:47;12.60;99.90
51839;DHT22;37886;53.174;6.368;2022-10-28T03:14:12;12.60;99.90
51839;DHT22;37886;53.174;6.368;2022-10-28T03:16:38;12.70;99.90
51839;DHT22;37886;53.174;6.368;2022-10-28T03:19:04;12.60;99.90
51839;DHT22;37886;53.174;6.368;2022-10-28T03:21:29;12.60;99.90
51839;DHT22;37886;53.174;6.368;2022-10-28T03:23:55;12.60;99.90
51839;DHT22;37886;53.174;6.368;2022-10-28T03:26:21;12.70;99.90
51839;DHT22;37886;53.174;6.368;2022-10-28T03:28:46;12.80;99.90
51839;DHT22;37886;53.174;6.368;2022-10-28T03:31:13;12.80;99.90
51839;DHT22;37886;53.174;6.368;2022-10-28T03:33:39;12.80;99.90
51839;DHT22;37886;53.174;6.368;2022-10-28T03:36:05;12.90;99.90
51839;DHT22;37886;53.174;6.368;2022-10-28T03:38:31;12.80;99.90
51839;DHT22;37886;53.174;6.368;2022-10-28T03:40:57;12.70;99.90
51839;DHT22;37886;53.174;6.368;2022-10-28T03:43:22;12.70;99.90
51839;DHT22;37886;53.174;6.368;2022-10-28T03:45:48;12.70;99.90
51839;DHT22;37886;53.174;6.368;2022-10-28T03:48:14;12.70;99.90
51839;DHT22;37886;53.174;6.368;2022-10-28T03:50:39;12.60;99.90
51839;DHT22;37886;53.174;6.368;2022-10-28T03:53:05;12.60;99.90
51839;DHT22;37886;53.174;6.368;2022-10-28T03:55:31;12.50;99.90
51839;DHT22;37886;53.174;6.368;2022-10-28T03:57:59;12.60;99.90
51839;DHT22;37886;53.174;6.368;2022-10-28T04:00:25;12.50;99.90
51839;DHT22;37886;53.174;6.368;2022-10-28T04:02:51;12.50;99.90
51839;DHT22;37886;53.174;6.368;2022-10-28T04:05:18;12.50;99.90
51839;DHT22;37886;53.174;6.368;2022-10-28T04:07:44;12.50;99.90
51839;DHT22;37886;53.174;6.368;2022-10-28T04:10:10;12.50;99.90
51839;DHT22;37886;53.174;6.368;2022-10-28T04:12:36;12.50;99.90
51839;DHT22;37886;53.174;6.368;2022-10-28T04:15:02;12.50;99.90
51839;DHT22;37886;53.174;6.368;2022-10-28T04:17:28;12.40;99.90
51839;DHT22;37886;53.174;6.368;2022-10-28T04:19:54;12.40;99.90
51839;DHT22;37886;53.174;6.368;2022-10-28T04:22:20;12.40;99.90
51839;DHT22;37886;53.174;6.368;2022-10-28T04:24:45;12.40;99.90
51839;DHT22;37886;53.174;6.368;2022-10-28T04:27:11;12.40;99.90
51839;DHT22;37886;53.174;6.368;2022-10-28T04:29:37;12.40;99.90
51839;DHT22;37886;53.174;6.368;2022-10-28T04:32:02;12.40;99.90
51839;DHT22;37886;53.174;6.368;2022-10-28T04:34:28;12.30;99.90
51839;DHT22;37886;53.174;6.368;2022-10-28T04:36:54;12.30;99.90
51839;DHT22;37886;53.174;6.368;2022-10-28T04:39:19;12.30;99.90
51839;DHT22;37886;53.174;6.368;2022-10-28T04:41:45;12.30;99.90
51839;DHT22;37886;53.174;6.368;2022-10-28T04:44:14;12.30;99.90
51839;DHT22;37886;53.174;6.368;2022-10-28T04:46:40;12.30;99.90
51839;DHT22;37886;53.174;6.368;2022-10-28T04:49:05;12.40;99.90
51839;DHT22;37886;53.174;6.368;2022-10-28T04:51:31;12.40;99.90
51839;DHT22;37886;53.174;6.368;2022-10-28T04:53:57;12.40;99.90
51839;DHT22;37886;53.174;6.368;2022-10-28T04:56:22;12.40;99.90
51839;DHT22;37886;53.174;6.368;2022-10-28T04:58:48;12.40;99.90
51839;DHT22;37886;53.174;6.368;2022-10-28T05:01:13;12.40;99.90
51839;DHT22;37886;53.174;6.368;2022-10-28T05:03:39;12.40;99.90
51839;DHT22;37886;53.174;6.368;2022-10-28T05:06:05;12.50;99.90
51839;DHT22;37886;53.174;6.368;2022-10-28T05:08:31;12.50;99.90
51839;DHT22;37886;53.174;6.368;2022-10-28T05:10:56;12.50;99.90
51839;DHT22;37886;53.174;6.368;2022-10-28T05:13:22;12.50;99.90
51839;DHT22;37886;53.174;6.368;2022-10-28T05:15:48;12.60;99.90
51839;DHT22;37886;53.174;6.368;2022-10-28T05:18:14;12.60;99.90
51839;DHT22;37886;53.174;6.368;2022-10-28T05:20:40;12.60;99.90
51839;DHT22;37886;53.174;6.368;2022-10-28T05:23:05;12.60;99.90
51839;DHT22;37886;53.174;6.368;2022-10-28T05:25:31;12.60;99.90
51839;DHT22;37886;53.174;6.368;2022-10-28T05:27:58;12.50;99.90
51839;DHT22;37886;53.174;6.368;2022-10-28T05:30:25;12.50;99.90
51839;DHT22;37886;53.174;6.368;2022-10-28T05:32:51;12.50;99.90
51839;DHT22;37886;53.174;6.368;2022-10-28T05:35:22;12.70;99.90
51839;DHT22;37886;53.174;6.368;2022-10-28T05:37:48;12.70;99.90
51839;DHT22;37886;53.174;6.368;2022-10-28T05:40:14;12.60;99.90
51839;DHT22;37886;53.174;6.368;2022-10-28T05:42:40;12.60;99.90
51839;DHT22;37886;53.174;6.368;2022-10-28T05:45:07;12.70;99.90
51839;DHT22;37886;53.174;6.368;2022-10-28T05:47:33;12.60;99.90
51839;DHT22;37886;53.174;6.368;2022-10-28T05:49:59;12.60;99.90
51839;DHT22;37886;53.174;6.368;2022-10-28T05:52:24;12.60;99.90
51839;DHT22;37886;53.174;6.368;2022-10-28T05:54:50;12.60;99.90
51839;DHT22;37886;53.174;6.368;2022-10-28T05:57:15;12.50;99.90
51839;DHT22;37886;53.174;6.368;2022-10-28T05:59:41;12.50;99.90
51839;DHT22;37886;53.174;6.368;2022-10-28T06:02:12;12.50;99.90
51839;DHT22;37886;53.174;6.368;2022-10-28T06:04:39;12.50;99.90
51839;DHT22;37886;53.174;6.368;2022-10-28T06:07:05;12.60;99.90
51839;DHT22;37886;53.174;6.368;2022-10-28T06:09:31;12.60;99.90
51839;DHT22;37886;53.174;6.368;2022-10-28T06:11:57;12.60;99.90
51839;DHT22;37886;53.174;6.368;2022-10-28T06:14:22;12.60;99.90
51839;DHT22;37886;53.174;6.368;2022-10-28T06:16:48;12.60;99.90
51839;DHT22;37886;53.174;6.368;2022-10-28T06:19:14;12.50;99.90
51839;DHT22;37886;53.174;6.368;2022-10-28T06:21:39;12.50;99.90
51839;DHT22;37886;53.174;6.368;2022-10-28T06:24:05;12.50;99.90
51839;DHT22;37886;53.174;6.368;2022-10-28T06:26:33;12.40;99.90
51839;DHT22;37886;53.174;6.368;2022-10-28T06:28:58;12.40;99.90
51839;DHT22;37886;53.174;6.368;2022-10-28T06:31:24;12.50;99.90
51839;DHT22;37886;53.174;6.368;2022-10-28T06:33:50;12.50;99.90
51839;DHT22;37886;53.174;6.368;2022-10-28T06:36:15;12.50;99.90
51839;DHT22;37886;53.174;6.368;2022-10-28T06:38:41;12.40;99.90
51839;DHT22;37886;53.174;6.368;2022-10-28T06:41:07;12.40;99.90
51839;DHT22;37886;53.174;6.368;2022-10-28T06:43:32;12.50;99.90
51839;DHT22;37886;53.174;6.368;2022-10-28T06:46:02;12.50;99.90
51839;DHT22;37886;53.174;6.368;2022-10-28T06:48:29;12.50;99.90
51839;DHT22;37886;53.174;6.368;2022-10-28T06:50:56;12.60;99.90
51839;DHT22;37886;53.174;6.368;2022-10-28T06:53:23;12.60;99.90
51839;DHT22;37886;53.174;6.368;2022-10-28T06:55:56;12.60;99.90
51839;DHT22;37886;53.174;6.368;2022-10-28T06:58:23;12.70;99.90
51839;DHT22;37886;53.174;6.368;2022-10-28T07:00:49;12.70;99.90
51839;DHT22;37886;53.174;6.368;2022-10-28T07:03:15;12.80;99.90
51839;DHT22;37886;53.174;6.368;2022-10-28T07:05:41;13.00;99.90
51839;DHT22;37886;53.174;6.368;2022-10-28T07:08:07;13.20;99.90
51839;DHT22;37886;53.174;6.368;2022-10-28T07:10:32;13.30;99.90
51839;DHT22;37886;53.174;6.368;2022-10-28T07:12:58;13.40;99.90
51839;DHT22;37886;53.174;6.368;2022-10-28T07:15:24;13.40;99.90
51839;DHT22;37886;53.174;6.368;2022-10-28T07:17:57;13.40;99.90
51839;DHT22;37886;53.174;6.368;2022-10-28T07:20:25;13.50;99.90
51839;DHT22;37886;53.174;6.368;2022-10-28T07:22:56;13.60;99.90
51839;DHT22;37886;53.174;6.368;2022-10-28T07:25:21;13.70;99.90
51839;DHT22;37886;53.174;6.368;2022-10-28T07:27:47;13.80;99.90
51839;DHT22;37886;53.174;6.368;2022-10-28T07:30:13;13.90;99.90
51839;DHT22;37886;53.174;6.368;2022-10-28T07:32:38;13.90;99.90
51839;DHT22;37886;53.174;6.368;2022-10-28T07:35:04;14.00;99.90
51839;DHT22;37886;53.174;6.368;2022-10-28T07:37:30;14.10;99.90
51839;DHT22;37886;53.174;6.368;2022-10-28T07:39:56;14.20;99.90
51839;DHT22;37886;53.174;6.368;2022-10-28T07:42:21;14.20;99.90
51839;DHT22;37886;53.174;6.368;2022-10-28T07:44:47;14.20;99.90
51839;DHT22;37886;53.174;6.368;2022-10-28T07:47:13;14.30;99.90
51839;DHT22;37886;53.174;6.368;2022-10-28T07:49:38;14.30;99.90
51839;DHT22;37886;53.174;6.368;2022-10-28T07:52:04;14.40;99.90
51839;DHT22;37886;53.174;6.368;2022-10-28T07:54:30;14.50;99.90
51839;DHT22;37886;53.174;6.368;2022-10-28T07:56:56;14.50;99.90
51839;DHT22;37886;53.174;6.368;2022-10-28T07:59:23;14.50;99.90
51839;DHT22;37886;53.174;6.368;2022-10-28T08:01:49;14.60;99.90
51839;DHT22;37886;53.174;6.368;2022-10-28T08:04:15;14.80;99.90
51839;DHT22;37886;53.174;6.368;2022-10-28T08:06:41;14.90;99.90
51839;DHT22;37886;53.174;6.368;2022-10-28T08:09:07;15.00;99.90
51839;DHT22;37886;53.174;6.368;2022-10-28T08:11:33;15.20;99.90
51839;DHT22;37886;53.174;6.368;2022-10-28T08:14:00;15.30;99.90
51839;DHT22;37886;53.174;6.368;2022-10-28T08:16:28;15.30;99.90
51839;DHT22;37886;53.174;6.368;2022-10-28T08:18:56;15.40;99.90
51839;DHT22;37886;53.174;6.368;2022-10-28T08:21:22;15.50;99.90
51839;DHT22;37886;53.174;6.368;2022-10-28T08:23:49;15.60;99.90
51839;DHT22;37886;53.174;6.368;2022-10-28T08:26:15;15.70;99.90
51839;DHT22;37886;53.174;6.368;2022-10-28T08:28:42;15.70;99.90
51839;DHT22;37886;53.174;6.368;2022-10-28T08:31:08;15.80;99.90
51839;DHT22;37886;53.174;6.368;2022-10-28T08:33:40;15.90;99.90
51839;DHT22;37886;53.174;6.368;2022-10-28T08:36:08;16.00;99.90
51839;DHT22;37886;53.174;6.368;2022-10-28T08:38:33;16.10;99.90
51839;DHT22;37886;53.174;6.368;2022-10-28T08:41:38;16.10;99.90
51839;DHT22;37886;53.174;6.368;2022-10-28T08:49:25;16.30;99.90
51839;DHT22;37886;53.174;6.368;2022-10-28T08:52:15;16.40;99.90
51839;DHT22;37886;53.174;6.368;2022-10-28T08:54:48;16.50;99.90
51839;DHT22;37886;53.174;6.368;2022-10-28T08:57:18;16.50;99.90
51839;DHT22;37886;53.174;6.368;2022-10-28T08:59:45;16.50;99.90
51839;DHT22;37886;53.174;6.368;2022-10-28T09:02:22;16.60;99.90
51839;DHT22;37886;53.174;6.368;2022-10-28T09:05:01;16.60;99.90
51839;DHT22;37886;53.174;6.368;2022-10-28T09:07:32;16.60;99.90
51839;DHT22;37886;53.174;6.368;2022-10-28T09:09:58;16.60;99.90
51839;DHT22;37886;53.174;6.368;2022-10-28T09:23:34;16.70;99.90
51839;DHT22;37886;53.174;6.368;2022-10-28T09:31:36;16.80;99.90
51839;DHT22;37886;53.174;6.368;2022-10-28T09:37:20;16.80;99.90
51839;DHT22;37886;53.174;6.368;2022-10-28T09:39:52;16.80;99.90
51839;DHT22;37886;53.174;6.368;2022-10-28T09:42:29;16.80;99.90
51839;DHT22;37886;53.174;6.368;2022-10-28T09:44:59;16.90;99.90
51839;DHT22;37886;53.174;6.368;2022-10-28T09:47:39;16.90;99.90
51839;DHT22;37886;53.174;6.368;2022-10-28T09:50:13;17.00;99.90
51839;DHT22;37886;53.174;6.368;2022-10-28T09:55:19;17.10;99.90
51839;DHT22;37886;53.174;6.368;2022-10-28T09:57:45;17.10;99.90
51839;DHT22;37886;53.174;6.368;2022-10-28T10:00:12;17.20;99.90
51839;DHT22;37886;53.174;6.368;2022-10-28T10:02:39;17.20;99.90
51839;DHT22;37886;53.174;6.368;2022-10-28T10:05:19;17.30;99.90
51839;DHT22;37886;53.174;6.368;2022-10-28T10:07:57;17.40;99.90
51839;DHT22;37886;53.174;6.368;2022-10-28T10:10:27;17.50;99.90
51839;DHT22;37886;53.174;6.368;2022-10-28T10:12:57;17.60;99.90
51839;DHT22;37886;53.174;6.368;2022-10-28T10:15:41;17.70;99.90
51839;DHT22;37886;53.174;6.368;2022-10-28T10:18:20;17.80;99.90
51839;DHT22;37886;53.174;6.368;2022-10-28T10:20:52;17.90;99.90
51839;DHT22;37886;53.174;6.368;2022-10-28T10:26:30;17.90;99.90
51839;DHT22;37886;53.174;6.368;2022-10-28T10:28:50;18.00;99.90
51839;DHT22;37886;53.174;6.368;2022-10-28T10:31:21;18.00;99.90
51839;DHT22;37886;53.174;6.368;2022-10-28T10:33:55;18.10;99.90
51839;DHT22;37886;53.174;6.368;2022-10-28T10:36:25;18.20;99.90
51839;DHT22;37886;53.174;6.368;2022-10-28T10:39:01;18.30;99.90
51839;DHT22;37886;53.174;6.368;2022-10-28T10:41:35;18.40;99.90
51839;DHT22;37886;53.174;6.368;2022-10-28T10:44:02;18.50;99.90
51839;DHT22;37886;53.174;6.368;2022-10-28T10:49:26;18.70;99.90
51839;DHT22;37886;53.174;6.368;2022-10-28T10:51:57;18.70;99.90
51839;DHT22;37886;53.174;6.368;2022-10-28T10:54:25;18.70;99.90
51839;DHT22;37886;53.174;6.368;2022-10-28T10:56:52;18.70;99.90
51839;DHT22;37886;53.174;6.368;2022-10-28T10:59:28;18.70;99.90
51839;DHT22;37886;53.174;6.368;2022-10-28T11:01:55;18.70;99.90
51839;DHT22;37886;53.174;6.368;2022-10-28T11:04:24;18.80;99.90
51839;DHT22;37886;53.174;6.368;2022-10-28T11:06:55;18.90;99.90
51839;DHT22;37886;53.174;6.368;2022-10-28T11:09:29;19.00;99.90
51839;DHT22;37886;53.174;6.368;2022-10-28T11:11:55;19.20;99.90
51839;DHT22;37886;53.174;6.368;2022-10-28T11:14:29;19.20;99.90
51839;DHT22;37886;53.174;6.368;2022-10-28T11:17:00;19.10;99.90
51839;DHT22;37886;53.174;6.368;2022-10-28T11:19:35;19.10;99.90
51839;DHT22;37886;53.174;6.368;2022-10-28T11:30:59;19.60;99.90
51839;DHT22;37886;53.174;6.368;2022-10-28T11:34:29;19.60;99.90
51839;DHT22;37886;53.174;6.368;2022-10-28T11:43:58;20.10;99.90
51839;DHT22;37886;53.174;6.368;2022-10-28T11:49:28;20.30;99.90
51839;DHT22;37886;53.174;6.368;2022-10-28T11:57:08;20.70;99.90
51839;DHT22;37886;53.174;6.368;2022-10-28T12:02:41;20.90;99.90
51839;DHT22;37886;53.174;6.368;2022-10-28T12:18:21;20.10;99.90
51839;DHT22;37886;53.174;6.368;2022-10-28T12:21:11;20.10;99.90
51839;DHT22;37886;53.174;6.368;2022-10-28T12:23:39;20.00;99.90
51839;DHT22;37886;53.174;6.368;2022-10-28T12:26:10;19.90;99.90
51839;DHT22;37886;53.174;6.368;2022-10-28T12:28:59;19.90;99.90
51839;DHT22;37886;53.174;6.368;2022-10-28T12:31:29;19.90;99.90
51839;DHT22;37886;53.174;6.368;2022-10-28T12:34:02;19.90;99.90
51839;DHT22;37886;53.174;6.368;2022-10-28T12:36:49;19.90;99.90
51839;DHT22;37886;53.174;6.368;2022-10-28T12:39:47;19.90;99.90
51839;DHT22;37886;53.174;6.368;2022-10-28T12:44:43;19.80;99.90
51839;DHT22;37886;53.174;6.368;2022-10-28T12:47:18;19.80;99.90
51839;DHT22;37886;53.174;6.368;2022-10-28T12:50:20;19.80;99.90
51839;DHT22;37886;53.174;6.368;2022-10-28T12:53:15;19.90;99.90
51839;DHT22;37886;53.174;6.368;2022-10-28T12:58:34;20.00;99.90
51839;DHT22;37886;53.174;6.368;2022-10-28T13:01:13;20.00;99.90
51839;DHT22;37886;53.174;6.368;2022-10-28T13:03:40;20.10;99.90
51839;DHT22;37886;53.174;6.368;2022-10-28T13:27:43;20.30;99.90
51839;DHT22;37886;53.174;6.368;2022-10-28T13:30:17;20.30;99.90
51839;DHT22;37886;53.174;6.368;2022-10-28T13:32:44;20.30;99.90
51839;DHT22;37886;53.174;6.368;2022-10-28T13:35:19;20.30;99.90
51839;DHT22;37886;53.174;6.368;2022-10-28T13:37:48;20.20;99.90
51839;DHT22;37886;53.174;6.368;2022-10-28T13:42:57;20.10;99.90
51839;DHT22;37886;53.174;6.368;2022-10-28T13:59:21;19.70;99.90
51839;DHT22;37886;53.174;6.368;2022-10-28T14:02:03;19.60;99.90
51839;DHT22;37886;53.174;6.368;2022-10-28T14:04:40;19.60;99.90
51839;DHT22;37886;53.174;6.368;2022-10-28T14:09:38;19.60;99.90
51839;DHT22;37886;53.174;6.368;2022-10-28T14:12:15;19.50;99.90
51839;DHT22;37886;53.174;6.368;2022-10-28T14:15:04;19.60;99.90
51839;DHT22;37886;53.174;6.368;2022-10-28T14:17:40;19.50;99.90
51839;DHT22;37886;53.174;6.368;2022-10-28T14:20:21;19.40;99.90
51839;DHT22;37886;53.174;6.368;2022-10-28T14:22:48;19.40;99.90
51839;DHT22;37886;53.174;6.368;2022-10-28T14:31:31;19.40;99.90
51839;DHT22;37886;53.174;6.368;2022-10-28T14:36:39;19.30;99.90
51839;DHT22;37886;53.174;6.368;2022-10-28T14:45:06;19.20;99.90
51839;DHT22;37886;53.174;6.368;2022-10-28T14:50:25;19.20;99.90
51839;DHT22;37886;53.174;6.368;2022-10-28T14:52:55;19.20;99.90
51839;DHT22;37886;53.174;6.368;2022-10-28T14:55:30;19.10;99.90
51839;DHT22;37886;53.174;6.368;2022-10-28T14:58:19;19.10;99.90
51839;DHT22;37886;53.174;6.368;2022-10-28T15:03:44;19.00;99.90
51839;DHT22;37886;53.174;6.368;2022-10-28T15:06:35;19.00;99.90
51839;DHT22;37886;53.174;6.368;2022-10-28T15:09:26;19.00;99.90
51839;DHT22;37886;53.174;6.368;2022-10-28T15:12:01;18.90;99.90
51839;DHT22;37886;53.174;6.368;2022-10-28T15:17:23;18.80;99.90
51839;DHT22;37886;53.174;6.368;2022-10-28T15:19:53;18.70;99.90
51839;DHT22;37886;53.174;6.368;2022-10-28T15:22:29;18.70;99.90
51839;DHT22;37886;53.174;6.368;2022-10-28T15:25:05;18.70;99.90
51839;DHT22;37886;53.174;6.368;2022-10-28T15:27:36;18.60;99.90
51839;DHT22;37886;53.174;6.368;2022-10-28T15:30:31;18.50;99.90
51839;DHT22;37886;53.174;6.368;2022-10-28T15:35:43;18.40;99.90
51839;DHT22;37886;53.174;6.368;2022-10-28T15:38:30;18.40;99.90
51839;DHT22;37886;53.174;6.368;2022-10-28T15:40:57;18.30;99.90
51839;DHT22;37886;53.174;6.368;2022-10-28T15:43:26;18.30;99.90
51839;DHT22;37886;53.174;6.368;2022-10-28T15:45:53;18.20;99.90
51839;DHT22;37886;53.174;6.368;2022-10-28T15:48:23;18.20;99.90
51839;DHT22;37886;53.174;6.368;2022-10-28T15:51:10;18.10;99.90
51839;DHT22;37886;53.174;6.368;2022-10-28T15:54:08;18.00;99.90
51839;DHT22;37886;53.174;6.368;2022-10-28T15:56:26;18.00;99.90
51839;DHT22;37886;53.174;6.368;2022-10-28T16:01:35;17.80;99.90
51839;DHT22;37886;53.174;6.368;2022-10-28T16:04:40;17.90;99.90
51839;DHT22;37886;53.174;6.368;2022-10-28T16:06:56;17.90;99.90
51839;DHT22;37886;53.174;6.368;2022-10-28T16:09:29;17.80;99.90
51839;DHT22;37886;53.174;6.368;2022-10-28T16:11:59;17.70;99.90
51839;DHT22;37886;53.174;6.368;2022-10-28T16:14:38;17.70;99.90
51839;DHT22;37886;53.174;6.368;2022-10-28T16:22:22;17.70;99.90
51839;DHT22;37886;53.174;6.368;2022-10-28T16:24:50;17.70;99.90
51839;DHT22;37886;53.174;6.368;2022-10-28T16:29:49;17.70;99.90
51839;DHT22;37886;53.174;6.368;2022-10-28T16:32:17;17.70;99.90
51839;DHT22;37886;53.174;6.368;2022-10-28T16:34:44;17.70;99.90
51839;DHT22;37886;53.174;6.368;2022-10-28T16:37:24;17.70;99.90
51839;DHT22;37886;53.174;6.368;2022-10-28T16:39:50;17.70;99.90
51839;DHT22;37886;53.174;6.368;2022-10-28T16:42:16;17.60;99.90
51839;DHT22;37886;53.174;6.368;2022-10-28T16:44:43;17.60;99.90
51839;DHT22;37886;53.174;6.368;2022-10-28T16:47:14;17.60;99.90
51839;DHT22;37886;53.174;6.368;2022-10-28T16:49:41;17.60;99.90
51839;DHT22;37886;53.174;6.368;2022-10-28T16:52:16;17.60;99.90
51839;DHT22;37886;53.174;6.368;2022-10-28T16:54:45;17.60;99.90
51839;DHT22;37886;53.174;6.368;2022-10-28T16:57:11;17.50;99.90
51839;DHT22;37886;53.174;6.368;2022-10-28T16:59:37;17.60;99.90
51839;DHT22;37886;53.174;6.368;2022-10-28T17:02:03;17.50;99.90
51839;DHT22;37886;53.174;6.368;2022-10-28T17:04:29;17.60;99.90
51839;DHT22;37886;53.174;6.368;2022-10-28T17:06:55;17.60;99.90
51839;DHT22;37886;53.174;6.368;2022-10-28T17:09:21;17.60;99.90
51839;DHT22;37886;53.174;6.368;2022-10-28T17:11:46;17.60;99.90
51839;DHT22;37886;53.174;6.368;2022-10-28T17:14:12;17.60;99.90
51839;DHT22;37886;53.174;6.368;2022-10-28T17:16:37;17.60;99.90
51839;DHT22;37886;53.174;6.368;2022-10-28T17:19:03;17.60;99.90
51839;DHT22;37886;53.174;6.368;2022-10-28T17:21:29;17.50;99.90
51839;DHT22;37886;53.174;6.368;2022-10-28T17:23:54;17.50;99.90
51839;DHT22;37886;53.174;6.368;2022-10-28T17:26:23;17.50;99.90
51839;DHT22;37886;53.174;6.368;2022-10-28T17:28:52;17.50;99.90
51839;DHT22;37886;53.174;6.368;2022-10-28T17:31:18;17.40;99.90
51839;DHT22;37886;53.174;6.368;2022-10-28T17:33:44;17.40;99.90
51839;DHT22;37886;53.174;6.368;2022-10-28T17:36:10;17.30;99.90
51839;DHT22;37886;53.174;6.368;2022-10-28T17:38:36;17.40;99.90
51839;DHT22;37886;53.174;6.368;2022-10-28T17:41:01;17.40;99.90
51839;DHT22;37886;53.174;6.368;2022-10-28T17:43:27;17.40;99.90
51839;DHT22;37886;53.174;6.368;2022-10-28T17:46:04;17.40;99.90
51839;DHT22;37886;53.174;6.368;2022-10-28T17:48:33;17.30;99.90
51839;DHT22;37886;53.174;6.368;2022-10-28T17:50:59;17.30;99.90
51839;DHT22;37886;53.174;6.368;2022-10-28T17:53:25;17.20;99.90
51839;DHT22;37886;53.174;6.368;2022-10-28T17:55:58;17.10;99.90
51839;DHT22;37886;53.174;6.368;2022-10-28T17:58:25;17.20;99.90
51839;DHT22;37886;53.174;6.368;2022-10-28T18:01:05;17.10;99.90
51839;DHT22;37886;53.174;6.368;2022-10-28T18:03:32;17.10;99.90
51839;DHT22;37886;53.174;6.368;2022-10-28T18:06:11;17.00;99.90
51839;DHT22;37886;53.174;6.368;2022-10-28T18:08:39;17.00;99.90
51839;DHT22;37886;53.174;6.368;2022-10-28T18:11:06;17.00;99.90
51839;DHT22;37886;53.174;6.368;2022-10-28T18:13:34;17.10;99.90
51839;DHT22;37886;53.174;6.368;2022-10-28T18:18:29;17.10;99.90
51839;DHT22;37886;53.174;6.368;2022-10-28T18:20:55;17.10;99.90
51839;DHT22;37886;53.174;6.368;2022-10-28T18:23:21;17.10;99.90
51839;DHT22;37886;53.174;6.368;2022-10-28T18:26:00;17.10;99.90
51839;DHT22;37886;53.174;6.368;2022-10-28T18:28:28;17.10;99.90
51839;DHT22;37886;53.174;6.368;2022-10-28T18:30:54;17.10;99.90
51839;DHT22;37886;53.174;6.368;2022-10-28T18:33:28;17.10;99.90
51839;DHT22;37886;53.174;6.368;2022-10-28T18:35:57;17.00;99.90
51839;DHT22;37886;53.174;6.368;2022-10-28T18:38:23;17.10;99.90
51839;DHT22;37886;53.174;6.368;2022-10-28T18:40:48;17.00;99.90
51839;DHT22;37886;53.174;6.368;2022-10-28T18:43:14;17.00;99.90
51839;DHT22;37886;53.174;6.368;2022-10-28T18:45:40;17.00;99.90
51839;DHT22;37886;53.174;6.368;2022-10-28T18:48:06;17.00;99.90
51839;DHT22;37886;53.174;6.368;2022-10-28T18:50:32;16.90;99.90
51839;DHT22;37886;53.174;6.368;2022-10-28T18:52:57;16.90;99.90
51839;DHT22;37886;53.174;6.368;2022-10-28T18:55:23;16.80;99.90
51839;DHT22;37886;53.174;6.368;2022-10-28T18:57:50;16.80;99.90
51839;DHT22;37886;53.174;6.368;2022-10-28T19:00:17;16.80;99.90
51839;DHT22;37886;53.174;6.368;2022-10-28T19:02:42;16.90;99.90
51839;DHT22;37886;53.174;6.368;2022-10-28T19:05:08;16.80;99.90